Time;durP1;ratioP1;P1;durP2;ratioP2;P2;SDS_P1;SDS_P2;PMS_P1;PMS_P2;Temp;Humidity;BMP_temperature;BMP_pressure;BME280_temperature;BME280_humidity;BME280_pressure;Samples;Min_cycle;Max_cycle;Signal;HPM_P1;HPM_P2
2022/08/10 00:01:25;;;;;;;1.25;1.00;;;;;;;16.65;95.79;99812.34;1780734;80;21492;-70
2022/08/10 00:03:51;;;;;;;2.87;1.17;;;;;;;16.65;96.29;99807.94;1780766;80;21047;-70
2022/08/10 00:06:19;;;;;;;1.67;1.00;;;;;;;16.65;96.72;99806.62;1780802;80;21139;-70
2022/08/10 00:08:45;;;;;;;5.12;1.40;;;;;;;16.62;96.91;99805.45;1780595;80;21831;-70
2022/08/10 00:11:12;;;;;;;2.35;1.50;;;;;;;16.60;97.27;99802.55;1780662;80;21039;-70
2022/08/10 00:13:38;;;;;;;1.55;1.10;;;;;;;16.59;97.58;99803.48;1781040;80;20964;-70
2022/08/10 00:16:05;;;;;;;2.25;1.37;;;;;;;16.58;97.73;99800.05;1780757;80;21539;-70
2022/08/10 00:18:32;;;;;;;5.55;1.15;;;;;;;16.58;97.97;99800.05;1780695;80;21511;-70
2022/08/10 00:20:58;;;;;;;1.62;1.17;;;;;;;16.58;98.12;99807.92;1780617;80;21433;-70
2022/08/10 00:23:24;;;;;;;1.52;1.00;;;;;;;16.59;98.04;99807.42;1780937;80;21028;-70
2022/08/10 00:25:51;;;;;;;2.52;1.17;;;;;;;16.59;97.95;99803.48;1780722;80;21047;-70
2022/08/10 00:28:17;;;;;;;3.47;1.55;;;;;;;16.59;97.83;99809.58;1781039;80;20953;-70
2022/08/10 00:30:44;;;;;;;3.77;1.65;;;;;;;16.61;97.90;99810.80;1780680;80;21122;-70
2022/08/10 00:33:10;;;;;;;3.95;1.70;;;;;;;16.61;97.96;99815.58;1780581;80;21352;-70
2022/08/10 00:35:37;;;;;;;2.50;1.72;;;;;;;16.63;98.06;99812.87;1780872;80;21432;-70
2022/08/10 00:38:03;;;;;;;3.60;1.47;;;;;;;16.61;98.09;99815.58;1780655;80;21023;-70
2022/08/10 00:40:30;;;;;;;3.08;1.42;;;;;;;16.62;98.18;99814.65;1780688;80;20955;-70
2022/08/10 00:42:57;;;;;;;3.00;1.55;;;;;;;16.62;98.26;99810.71;1780657;80;21437;-70
2022/08/10 00:45:23;;;;;;;2.25;1.55;;;;;;;16.64;98.35;99811.50;1780924;80;21039;-70
2022/08/10 00:47:50;;;;;;;3.25;1.52;;;;;;;16.66;98.40;99822.75;1780694;80;21449;-70
2022/08/10 00:50:17;;;;;;;1.55;1.45;;;;;;;16.68;98.25;99814.78;1780685;80;21440;-70
2022/08/10 00:52:45;;;;;;;2.95;1.52;;;;;;;16.68;98.21;99813.47;1780551;80;20955;-70
2022/08/10 00:55:11;;;;;;;6.50;1.90;;;;;;;16.68;98.13;99814.31;1755221;80;21124;-70
2022/08/10 00:57:38;;;;;;;3.90;1.70;;;;;;;16.68;98.25;99814.31;1784271;80;20976;-70
2022/08/10 01:00:08;;;;;;;3.75;1.52;;;;;;;16.67;98.31;99809.16;1784217;80;20995;-70
2022/08/10 01:02:35;;;;;;;3.17;1.70;;;;;;;16.62;98.55;99808.55;1784256;80;20968;-70
2022/08/10 01:05:07;;;;;;;3.62;1.72;;;;;;;16.58;98.89;99803.14;1784344;80;21075;-70
2022/08/10 01:08:04;;;;;;;2.62;1.60;;;;;;;16.53;99.18;99802.09;1784392;80;21140;-70
2022/08/10 01:11:05;;;;;;;4.17;1.75;;;;;;;16.48;99.42;99802.36;1784198;80;21019;-70
2022/08/10 01:13:46;;;;;;;3.80;1.50;;;;;;;16.42;99.94;99807.12;1784604;80;20972;-70
2022/08/10 01:16:36;;;;;;;2.95;1.70;;;;;;;16.38;100.00;99807.81;1783742;80;21004;-70
2022/08/10 01:19:42;;;;;;;4.78;2.10;;;;;;;16.36;100.00;99807.52;1784557;80;21479;-69
2022/08/10 01:22:52;;;;;;;2.40;1.80;;;;;;;16.33;100.00;99800.67;1784795;80;21135;-70
2022/08/10 01:25:56;;;;;;;5.08;1.90;;;;;;;16.31;100.00;99804.31;1784422;80;20968;-69
2022/08/10 01:28:49;;;;;;;3.22;1.80;;;;;;;16.31;100.00;99804.31;1784582;79;20975;-70
2022/08/10 01:31:19;;;;;;;3.42;1.85;;;;;;;16.30;100.00;99806.56;1784377;80;20963;-69
2022/08/10 01:33:58;;;;;;;3.00;1.75;;;;;;;16.29;100.00;99800.94;1783786;80;21460;-70
2022/08/10 01:36:33;;;;;;;2.35;1.60;;;;;;;16.29;100.00;99806.19;1784344;80;21778;-70
2022/08/10 01:39:02;;;;;;;5.42;1.80;;;;;;;16.28;100.00;99804.50;1784526;80;20992;-70
2022/08/10 01:41:42;;;;;;;3.40;2.00;;;;;;;16.26;100.00;99803.27;1784451;80;20948;-69
2022/08/10 01:44:13;;;;;;;4.42;1.70;;;;;;;16.25;100.00;99799.42;1784521;80;20957;-70
2022/08/10 01:46:44;;;;;;;2.55;1.75;;;;;;;16.23;100.00;99807.85;1784259;80;20964;-70
2022/08/10 01:49:11;;;;;;;4.33;1.95;;;;;;;16.21;100.00;99809.25;1784561;80;21203;-69
2022/08/10 01:51:47;;;;;;;2.52;1.77;;;;;;;16.21;100.00;99814.50;1784177;80;20976;-70
2022/08/10 01:54:21;;;;;;;4.22;1.90;;;;;;;16.22;100.00;99803.07;1782633;80;21039;-71
2022/08/10 01:56:53;;;;;;;5.37;1.92;;;;;;;16.23;100.00;99803.45;1780633;80;21004;-70
2022/08/10 01:59:36;;;;;;;2.63;1.93;;;;;;;16.23;100.00;99802.14;1780930;80;20956;-69
2022/08/10 02:02:07;;;;;;;2.12;1.92;;;;;;;16.24;100.00;99799.89;1781033;80;22222;-70
2022/08/10 02:04:37;;;;;;;12.20;2.30;;;;;;;16.22;100.00;99791.73;1780932;80;20983;-70
2022/08/10 02:07:05;;;;;;;3.02;1.72;;;;;;;16.23;100.00;99796.05;1781079;80;21000;-70
2022/08/10 02:09:35;;;;;;;3.12;1.72;;;;;;;16.24;100.00;99799.05;1780826;80;21000;-70
2022/08/10 02:12:05;;;;;;;4.03;1.67;;;;;;;16.24;100.00;99802.52;1781149;80;21055;-70
2022/08/10 02:14:35;;;;;;;3.67;2.02;;;;;;;16.25;100.00;99805.52;1780788;80;21131;-70
2022/08/10 02:17:06;;;;;;;4.08;1.82;;;;;;;16.28;100.00;99804.50;1768938;80;20996;-70
2022/08/10 02:19:34;;;;;;;4.60;1.80;;;;;;;16.27;100.00;99801.03;1780815;80;21004;-69
2022/08/10 02:22:00;;;;;;;4.65;1.85;;;;;;;16.29;100.00;99801.78;1781011;80;20952;-70
2022/08/10 02:24:27;;;;;;;4.03;1.98;;;;;;;16.29;100.00;99795.22;1780787;80;21003;-69
2022/08/10 02:26:53;;;;;;;4.30;1.87;;;;;;;16.29;100.00;99797.84;1780880;80;21743;-69
2022/08/10 02:29:19;;;;;;;2.17;1.75;;;;;;;16.29;100.00;99796.53;1750874;80;20951;-69
2022/08/10 02:31:46;;;;;;;2.30;1.75;;;;;;;16.28;100.00;99802.72;1750562;80;20964;-69
2022/08/10 02:34:13;;;;;;;3.08;1.65;;;;;;;16.26;100.00;99795.40;1781066;80;21000;-69
2022/08/10 02:36:46;;;;;;;3.67;2.02;;;;;;;16.26;100.00;99799.34;1780802;80;20999;-69
2022/08/10 02:39:12;;;;;;;2.67;1.75;;;;;;;16.27;100.00;99800.18;1780940;80;21883;-69
2022/08/10 02:41:56;;;;;;;2.33;1.70;;;;;;;16.27;100.00;99801.03;1780785;80;20972;-70
2022/08/10 02:44:35;;;;;;;4.53;2.00;;;;;;;16.26;100.00;99801.11;1780818;80;20999;-69
2022/08/10 02:47:20;;;;;;;2.35;1.62;;;;;;;16.27;100.00;99804.12;1780776;80;21036;-69
2022/08/10 02:49:52;;;;;;;2.27;1.65;;;;;;;16.30;100.00;99800.84;1781141;80;20956;-69
2022/08/10 02:52:23;;;;;;;2.60;1.90;;;;;;;16.31;100.00;99800.38;1772344;80;21163;-69
2022/08/10 02:54:59;;;;;;;3.42;1.90;;;;;;;16.33;100.00;99806.39;1783076;80;21409;-69
2022/08/10 02:57:36;;;;;;;3.20;2.00;;;;;;;16.34;100.00;99804.98;1789677;80;20932;-69
2022/08/10 03:00:06;;;;;;;3.92;1.85;;;;;;;16.34;100.00;99798.89;1789636;80;21007;-70
2022/08/10 03:02:36;;;;;;;4.10;1.87;;;;;;;16.34;100.00;99798.89;1789761;80;21008;-70
2022/08/10 03:05:09;;;;;;;3.27;1.70;;;;;;;16.34;100.00;99794.48;1789623;80;21148;-70
2022/08/10 03:07:48;;;;;;;2.67;1.87;;;;;;;16.34;100.00;99787.92;1789563;80;20944;-69
2022/08/10 03:10:36;;;;;;;3.25;1.70;;;;;;;16.34;100.00;99787.08;1789471;80;21423;-70
2022/08/10 03:13:05;;;;;;;5.08;2.10;;;;;;;16.33;100.00;99799.36;1789559;80;20983;-69
2022/08/10 03:15:34;;;;;;;3.30;1.57;;;;;;;16.36;100.00;99804.89;1789938;80;21003;-69
2022/08/10 03:18:00;;;;;;;2.15;1.82;;;;;;;16.36;100.00;99805.74;1788904;79;21119;-69
2022/08/10 03:20:31;;;;;;;2.12;1.80;;;;;;;16.38;100.00;99810.44;1789763;80;21582;-70
2022/08/10 03:22:57;;;;;;;3.58;1.90;;;;;;;16.39;100.00;99812.09;1789699;80;20964;-70
2022/08/10 03:25:23;;;;;;;3.22;1.57;;;;;;;16.40;100.00;99803.28;1789865;80;21463;-69
2022/08/10 03:27:50;;;;;;;2.90;1.70;;;;;;;16.42;100.00;99809.29;1789615;80;20965;-70
2022/08/10 03:30:16;;;;;;;3.00;1.60;;;;;;;16.44;100.00;99808.73;1789863;80;21495;-69
2022/08/10 03:32:43;;;;;;;5.50;1.80;;;;;;;16.44;100.00;99807.42;1789455;80;21492;-69
2022/08/10 03:35:09;;;;;;;1.98;1.70;;;;;;;16.44;100.00;99810.52;1789662;80;20999;-70
2022/08/10 03:37:36;;;;;;;5.85;1.70;;;;;;;16.43;100.00;99810.13;1789317;80;20991;-69
2022/08/10 03:40:05;;;;;;;5.78;1.87;;;;;;;16.42;100.00;99812.38;1789647;80;21046;-69
2022/08/10 03:42:32;;;;;;;7.30;2.40;;;;;;;16.44;100.00;99807.89;1789575;80;21739;-70
2022/08/10 03:44:59;;;;;;;3.77;1.62;;;;;;;16.46;100.00;99804.70;1789501;80;20959;-69
2022/08/10 03:47:26;;;;;;;3.58;2.30;;;;;;;16.48;100.00;99796.27;1789780;80;20995;-70
2022/08/10 03:49:52;;;;;;;2.22;1.60;;;;;;;16.48;100.00;99794.95;1761707;80;20983;-70
2022/08/10 03:52:19;;;;;;;14.30;1.77;;;;;;;16.47;100.00;99798.05;1789569;80;20940;-70
2022/08/10 03:54:46;;;;;;;2.22;1.60;;;;;;;16.47;100.00;99803.30;1787826;80;21163;-70
2022/08/10 03:57:12;;;;;;;3.37;1.90;;;;;;;16.48;100.00;99808.93;1780720;80;21059;-69
2022/08/10 03:59:39;;;;;;;6.67;1.85;;;;;;;16.50;100.00;99813.62;1780806;80;20949;-71
2022/08/10 04:02:05;;;;;;;5.70;2.30;;;;;;;16.52;100.00;99820.09;1780683;80;20980;-70
2022/08/10 04:04:32;;;;;;;3.02;1.50;;;;;;;16.56;100.00;99813.73;1780987;80;20992;-74
2022/08/10 04:06:59;;;;;;;6.42;1.47;;;;;;;16.59;100.00;99808.27;1781356;80;21318;-77
2022/08/10 04:09:31;;;;;;;2.77;1.95;;;;;;;16.62;100.00;99813.34;1780671;80;20989;-76
2022/08/10 04:11:58;;;;;;;5.62;2.02;;;;;;;16.64;100.00;99821.16;1780789;80;20996;-77
2022/08/10 04:14:24;;;;;;;2.25;1.62;;;;;;;16.64;100.00;99819.84;1780934;80;21488;-76
2022/08/10 04:16:50;;;;;;;4.58;1.70;;;;;;;16.67;100.00;99823.60;1780803;80;21118;-76
2022/08/10 04:19:18;;;;;;;2.45;1.60;;;;;;;16.66;100.00;99829.33;1781039;80;21637;-76
2022/08/10 04:22:04;;;;;;;3.95;1.80;;;;;;;16.65;100.00;99830.26;1780681;80;21487;-76
2022/08/10 04:24:32;;;;;;;2.67;1.70;;;;;;;16.66;100.00;99831.95;1780288;80;20962;-76
2022/08/10 04:26:58;;;;;;;3.02;1.82;;;;;;;16.66;100.00;99825.38;1780631;80;21429;-77
2022/08/10 04:29:25;;;;;;;2.45;1.75;;;;;;;16.67;100.00;99830.16;1781001;80;21000;-76
2022/08/10 04:31:51;;;;;;;4.20;2.30;;;;;;;16.67;100.00;99827.08;1780754;80;21244;-77
2022/08/10 04:34:18;;;;;;;2.37;1.90;;;;;;;16.68;100.00;99829.23;1780694;80;20938;-77
2022/08/10 04:36:44;;;;;;;4.25;1.85;;;;;;;16.65;100.00;99819.75;1780745;80;21003;-77
2022/08/10 04:39:11;;;;;;;3.72;1.70;;;;;;;16.60;100.00;99818.30;1780655;80;20945;-77
2022/08/10 04:41:37;;;;;;;2.37;2.00;;;;;;;16.56;100.00;99820.77;1781028;80;21417;-78
2022/08/10 04:44:04;;;;;;;5.75;2.50;;;;;;;16.53;100.00;99824.41;1780658;80;21143;-76
2022/08/10 04:46:30;;;;;;;3.50;1.98;;;;;;;16.50;100.00;99824.13;1780673;80;20885;-77
2022/08/10 04:48:57;;;;;;;4.37;2.42;;;;;;;16.48;100.00;99820.74;1780631;80;21475;-77
2022/08/10 04:51:23;;;;;;;6.60;1.87;;;;;;;16.47;100.00;99827.40;1780959;80;20984;-77
2022/08/10 04:53:50;;;;;;;3.10;1.98;;;;;;;16.49;100.00;99831.63;1780648;80;20953;-77
2022/08/10 04:56:17;;;;;;;2.85;2.05;;;;;;;16.50;100.00;99842.51;1785730;80;21132;-75
2022/08/10 04:58:43;;;;;;;3.87;2.15;;;;;;;16.53;100.00;99842.80;1789516;80;21487;-75
2022/08/10 05:01:10;;;;;;;3.50;2.22;;;;;;;16.55;100.00;99854.05;1789491;80;20991;-75
2022/08/10 05:03:36;;;;;;;4.72;2.15;;;;;;;16.60;100.00;99850.66;1789579;80;20959;-77
2022/08/10 05:06:03;;;;;;;3.15;2.17;;;;;;;16.63;100.00;99849.63;1789504;80;21058;-76
2022/08/10 05:08:30;;;;;;;3.42;2.25;;;;;;;16.64;100.00;99852.20;1788958;80;21568;-77
2022/08/10 05:10:56;;;;;;;3.33;2.27;;;;;;;16.63;100.00;99841.76;1788459;80;21567;-78
2022/08/10 05:13:24;;;;;;;5.42;2.02;;;;;;;16.63;100.00;99847.89;1785909;80;20996;-78
2022/08/10 05:15:52;;;;;;;2.77;1.75;;;;;;;16.64;100.00;99848.27;1783802;79;21517;-78
2022/08/10 05:18:19;;;;;;;3.20;2.20;;;;;;;16.64;100.00;99841.70;1762366;80;21021;-78
2022/08/10 05:20:45;;;;;;;3.37;2.27;;;;;;;16.64;100.00;99843.02;1770189;80;21108;-75
2022/08/10 05:23:12;;;;;;;2.77;2.45;;;;;;;16.65;100.00;99842.08;1785863;79;21045;-76
2022/08/10 05:25:39;;;;;;;5.28;2.37;;;;;;;16.66;100.00;99837.20;1756620;80;21103;-75
2022/08/10 05:28:05;;;;;;;4.37;2.05;;;;;;;16.68;100.00;99836.64;1785440;79;21133;-75
2022/08/10 05:30:33;;;;;;;3.85;2.33;;;;;;;16.66;100.00;99835.89;1785633;80;21551;-75
2022/08/10 05:33:00;;;;;;;2.27;2.08;;;;;;;16.64;100.00;99840.39;1785034;79;21179;-74
2022/08/10 05:35:27;;;;;;;2.58;2.12;;;;;;;16.62;100.00;99834.81;1785486;80;21048;-75
2022/08/10 05:37:55;;;;;;;3.15;2.10;;;;;;;16.59;100.00;99839.78;1784346;80;21520;-74
2022/08/10 05:40:22;;;;;;;3.83;2.25;;;;;;;16.55;100.00;99839.61;1773827;79;21023;-74
2022/08/10 05:42:49;;;;;;;4.22;1.92;;;;;;;16.51;100.00;99835.48;1774323;80;20964;-75
2022/08/10 05:53:39;;;;;;;3.40;2.33;;;;;;;16.35;100.00;99838.64;1769925;80;33163;-74
2022/08/10 05:59:51;;;;;;;6.40;2.00;;;;;;;16.31;100.00;99835.34;1739670;81;21151;-73
2022/08/10 06:06:44;;;;;;;3.42;1.98;;;;;;;16.32;100.00;99824.38;1738319;82;21027;-73
2022/08/10 06:09:15;;;;;;;4.37;2.20;;;;;;;16.33;100.00;99845.77;1718504;82;21089;-75
2022/08/10 06:18:42;;;;;;;2.90;2.12;;;;;;;16.48;100.00;99840.91;1740189;81;21493;-73
2022/08/10 06:21:15;;;;;;;4.30;2.15;;;;;;;16.52;100.00;99833.23;1673725;82;20969;-73
2022/08/10 06:23:45;;;;;;;7.37;2.20;;;;;;;16.52;100.00;99835.85;1717872;82;21068;-74
2022/08/10 06:26:24;;;;;;;3.85;2.40;;;;;;;16.54;100.00;99840.08;1727486;80;21055;-74
2022/08/10 06:29:11;;;;;;;2.75;2.52;;;;;;;16.52;100.00;99832.76;1771018;79;21046;-74
2022/08/10 06:31:44;;;;;;;4.78;2.37;;;;;;;16.54;100.00;99833.98;1750734;80;21258;-74
2022/08/10 06:34:11;;;;;;;3.08;2.50;;;;;;;16.53;100.00;99833.61;1771817;80;20891;-74
2022/08/10 06:36:38;;;;;;;4.70;2.65;;;;;;;16.53;100.00;99842.80;1771699;80;21123;-74
2022/08/10 06:39:05;;;;;;;2.52;2.20;;;;;;;16.54;100.00;99839.23;1762501;79;21483;-74
2022/08/10 06:41:35;;;;;;;2.40;2.20;;;;;;;16.56;100.00;99844.40;1761210;79;21129;-75
2022/08/10 06:44:06;;;;;;;4.05;3.17;;;;;;;16.55;100.00;99838.30;1759687;81;21160;-75
2022/08/10 06:46:35;;;;;;;4.85;2.33;;;;;;;16.56;100.00;99839.14;1761105;79;21058;-75
2022/08/10 06:49:03;;;;;;;4.08;2.60;;;;;;;16.58;100.00;99843.38;1789663;80;21023;-76
2022/08/10 06:51:33;;;;;;;3.70;2.67;;;;;;;16.60;100.00;99846.72;1769849;80;21119;-79
2022/08/10 06:54:09;;;;;;;3.92;2.98;;;;;;;16.67;100.00;99855.12;1723895;83;21041;-77
2022/08/10 06:56:41;;;;;;;6.45;3.75;;;;;;;16.71;100.00;99854.00;1726898;82;21153;-76
2022/08/10 06:59:37;;;;;;;8.10;4.55;;;;;;;16.74;100.00;99849.88;1696014;82;21572;-74
2022/08/10 07:02:11;;;;;;;3.55;3.00;;;;;;;16.78;100.00;99848.30;1700352;83;21079;-75
2022/08/10 07:04:49;;;;;;;2.80;2.40;;;;;;;16.81;100.00;99849.86;1666651;84;21125;-76
2022/08/10 07:07:23;;;;;;;4.95;2.50;;;;;;;16.84;100.00;99845.27;1678911;84;21032;-74
2022/08/10 07:09:50;;;;;;;3.25;2.08;;;;;;;16.85;100.00;99835.14;1705250;83;21193;-75
2022/08/10 07:12:19;;;;;;;5.40;2.50;;;;;;;16.88;100.00;99834.11;1692441;84;21050;-74
2022/08/10 07:14:46;;;;;;;4.08;2.25;;;;;;;16.86;100.00;99828.95;1679890;83;21008;-75
2022/08/10 07:17:18;;;;;;;4.75;2.67;;;;;;;16.87;100.00;99835.05;1733536;82;21511;-76
2022/08/10 07:19:48;;;;;;;2.70;2.20;;;;;;;16.87;100.00;99834.58;1772007;79;21075;-75
2022/08/10 07:22:15;;;;;;;2.85;2.35;;;;;;;16.89;100.00;99835.80;1772196;79;21197;-74
2022/08/10 07:24:44;;;;;;;2.65;2.22;;;;;;;16.92;100.00;99838.25;1739738;80;21086;-76
2022/08/10 07:27:10;;;;;;;2.80;1.92;;;;;;;16.98;100.00;99838.34;1761336;80;21030;-76
2022/08/10 07:29:39;;;;;;;2.22;2.02;;;;;;;17.04;100.00;99841.41;1788933;80;21073;-75
2022/08/10 07:32:06;;;;;;;4.53;2.50;;;;;;;17.10;100.00;99846.30;1778169;80;22094;-76
2022/08/10 07:34:35;;;;;;;2.42;2.22;;;;;;;17.15;100.00;99850.81;1760170;80;21119;-76
2022/08/10 07:37:05;;;;;;;2.35;1.82;;;;;;;17.19;100.00;99854.91;1761174;80;21012;-75
2022/08/10 07:39:36;;;;;;;3.15;2.10;;;;;;;17.21;100.00;99861.39;1761093;81;22290;-76
2022/08/10 07:42:04;;;;;;;4.62;2.20;;;;;;;17.23;100.00;99866.92;1750311;79;21213;-76
2022/08/10 07:44:31;;;;;;;4.03;2.67;;;;;;;17.28;100.00;99875.00;1757187;79;21294;-77
2022/08/10 07:47:00;;;;;;;4.60;2.52;;;;;;;17.35;100.00;99878.48;1770303;79;21207;-76
2022/08/10 07:49:33;;;;;;;6.30;3.40;;;;;;;17.44;100.00;99879.66;1752273;80;21038;-77
2022/08/10 07:52:00;;;;;;;3.90;2.67;;;;;;;17.50;100.00;99877.50;1725715;82;21027;-76
2022/08/10 07:54:28;;;;;;;7.30;2.90;;;;;;;17.59;100.00;99874.73;1741541;80;21150;-76
2022/08/10 07:57:00;;;;;;;5.72;3.15;;;;;;;17.68;100.00;99864.99;1754326;79;21051;-77
2022/08/10 07:59:41;;;;;;;2.55;2.20;;;;;;;17.80;100.00;99866.81;1695253;82;21511;-77
2022/08/10 08:02:19;;;;;;;2.77;2.20;;;;;;;17.93;100.00;99858.14;1746944;80;21147;-76
2022/08/10 08:04:46;;;;;;;3.62;2.22;;;;;;;18.07;100.00;99859.39;1754769;79;21027;-75
2022/08/10 08:07:13;;;;;;;4.12;2.22;;;;;;;18.18;100.00;99851.17;1673944;83;21440;-76
2022/08/10 08:09:43;;;;;;;3.02;2.52;;;;;;;18.27;100.00;99850.16;1761692;80;21028;-75
2022/08/10 08:12:11;;;;;;;4.33;3.65;;;;;;;18.34;100.00;99844.39;1760156;81;21220;-77
2022/08/10 08:14:38;;;;;;;2.08;1.98;;;;;;;18.43;100.00;99845.55;1760141;81;21180;-77
2022/08/10 08:17:05;;;;;;;3.60;2.27;;;;;;;18.51;100.00;99848.52;1760353;81;21091;-76
2022/08/10 08:19:32;;;;;;;4.67;2.27;;;;;;;18.65;100.00;99844.48;1769634;80;21055;-76
2022/08/10 08:21:59;;;;;;;3.17;2.33;;;;;;;18.82;100.00;99838.89;1760171;81;21575;-76
2022/08/10 08:24:25;;;;;;;4.42;1.90;;;;;;;19.03;100.00;99843.61;1760512;80;21081;-76
2022/08/10 08:26:52;;;;;;;2.90;2.50;;;;;;;19.20;100.00;99844.09;1760566;81;21046;-76
2022/08/10 08:29:18;;;;;;;2.77;2.37;;;;;;;19.39;99.72;99846.27;1761914;80;21171;-76
2022/08/10 08:31:45;;;;;;;4.95;2.27;;;;;;;19.55;99.68;99841.63;1794331;79;21098;-76
2022/08/10 08:34:12;;;;;;;2.62;2.30;;;;;;;19.72;95.73;99838.23;1763437;80;22173;-76
2022/08/10 08:36:39;;;;;;;3.37;2.20;;;;;;;19.81;94.33;99845.45;1719669;82;21282;-76
2022/08/10 08:39:05;;;;;;;3.10;2.05;;;;;;;19.85;92.84;99837.20;1719446;82;21051;-76
2022/08/10 08:42:08;;;;;;;2.62;2.30;;;;;;;19.90;92.88;99834.23;1787292;80;21042;-76
2022/08/10 08:45:05;;;;;;;5.95;4.72;;;;;;;19.96;92.19;99832.46;1786213;80;21029;-78
2022/08/10 08:47:59;;;;;;;2.95;2.70;;;;;;;20.01;92.38;99833.41;1718917;83;21724;-77
2022/08/10 08:50:57;;;;;;;2.80;2.02;;;;;;;20.06;91.54;99840.52;1721990;82;21133;-77
2022/08/10 08:54:10;;;;;;;4.53;2.58;;;;;;;20.09;91.42;99841.14;1761838;79;21552;-77
2022/08/10 08:56:45;;;;;;;2.70;2.17;;;;;;;20.15;91.20;99837.20;1760003;79;21528;-75
2022/08/10 08:59:54;;;;;;;5.08;1.95;;;;;;;20.20;90.06;99833.72;1786386;80;21090;-76
2022/08/10 09:03:07;;;;;;;4.47;2.85;;;;;;;20.29;91.52;99832.55;1775927;80;21665;-77
2022/08/10 09:05:47;;;;;;;;;;;;;;;20.37;89.53;99833.82;1792196;80;21094;-74
2022/08/10 09:08:53;;;;;;;3.58;2.58;;;;;;;20.43;91.39;99834.17;1790337;79;20481;-74
2022/08/10 09:11:44;;;;;;;8.05;7.30;;;;;;;20.53;90.35;99832.52;1703549;83;21042;-75
2022/08/10 09:14:23;;;;;;;3.50;2.70;;;;;;;20.63;89.86;99834.80;1792452;79;21451;-77
2022/08/10 09:16:57;;;;;;;3.92;2.55;;;;;;;20.70;87.84;99823.29;1766114;79;21055;-76
2022/08/10 09:19:46;;;;;;;3.65;2.45;;;;;;;20.79;86.75;99815.95;1766233;80;22165;-75
2022/08/10 09:22:30;;;;;;;4.80;2.27;;;;;;;20.88;85.33;99817.89;1765317;81;21095;-78
2022/08/10 09:25:14;;;;;;;4.22;2.90;;;;;;;21.01;85.88;99804.52;1724864;80;21721;-76
2022/08/10 09:27:54;;;;;;;2.17;2.05;;;;;;;21.10;84.12;99799.84;1765592;81;21526;-72
2022/08/10 09:30:43;;;;;;;2.33;2.10;;;;;;;21.08;82.54;99802.25;1765775;81;21115;-70
2022/08/10 09:33:14;;;;;;;2.27;2.08;;;;;;;21.07;81.19;99796.12;1766504;80;21432;-72
2022/08/10 09:36:07;;;;;;;3.42;2.10;;;;;;;21.06;80.72;99794.43;1766607;81;21183;-70
2022/08/10 09:39:07;;;;;;;3.35;2.12;;;;;;;21.09;80.28;99802.13;1765784;80;21373;-73
2022/08/10 09:41:50;;;;;;;3.80;2.35;;;;;;;21.12;81.23;99797.08;1752613;80;21105;-80
2022/08/10 09:44:44;;;;;;;3.47;1.80;;;;;;;21.11;81.54;99796.23;1769592;80;21017;-79
2022/08/10 09:48:03;;;;;;;2.37;2.00;;;;;;;21.12;79.23;99791.79;1665405;85;21091;-81
2022/08/10 09:51:27;;;;;;;3.35;2.40;;;;;;;21.09;79.31;99792.03;1662227;82;21097;-80
2022/08/10 09:54:08;;;;;;;3.40;1.92;;;;;;;21.11;78.63;99787.46;1740626;82;21081;-80
2022/08/10 09:57:05;;;;;;;2.85;2.05;;;;;;;21.12;78.22;99781.21;1692425;82;22185;-78
2022/08/10 09:59:57;;;;;;;2.22;1.65;;;;;;;21.11;79.10;99783.02;1762490;80;20978;-78
2022/08/10 10:02:47;;;;;;;2.10;1.90;;;;;;;21.17;79.94;99783.86;1780142;79;21095;-78
2022/08/10 10:05:45;;;;;;;4.30;2.62;;;;;;;21.22;78.97;99783.49;1786074;79;21601;-78
2022/08/10 10:08:39;;;;;;;1.92;1.45;;;;;;;21.22;79.31;99781.69;1785835;79;21018;-79
2022/08/10 10:11:23;;;;;;;2.52;1.95;;;;;;;21.20;76.17;99788.06;1692618;83;21060;-79
2022/08/10 10:14:11;;;;;;;2.62;2.08;;;;;;;21.06;75.57;99784.34;1685139;83;21033;-78
2022/08/10 10:16:52;;;;;;;1.95;1.65;;;;;;;20.97;77.07;99785.45;1689565;83;21136;-81
2022/08/10 10:19:49;;;;;;;3.77;1.70;;;;;;;20.95;76.48;99783.40;1672499;84;21140;-80
2022/08/10 10:22:49;;;;;;;3.17;1.60;;;;;;;20.92;75.51;99780.16;1685530;83;21074;-81
2022/08/10 10:25:48;;;;;;;2.75;1.60;;;;;;;20.87;74.91;99787.12;1643299;85;21297;-81
2022/08/10 10:28:58;;;;;;;1.35;1.25;;;;;;;20.89;75.55;99788.32;1646003;87;21025;-78
2022/08/10 10:31:58;;;;;;;2.80;1.70;;;;;;;20.96;75.39;99796.98;1681382;84;21882;-82
2022/08/10 10:34:46;;;;;;;3.45;1.30;;;;;;;21.05;75.44;99791.42;1692077;83;21665;-77
2022/08/10 10:37:22;;;;;;;1.72;1.62;;;;;;;21.15;73.92;99792.39;1683127;85;21006;-79
2022/08/10 10:39:54;;;;;;;2.80;1.55;;;;;;;21.24;74.07;99791.67;1685232;83;21091;-79
2022/08/10 10:43:08;;;;;;;2.10;1.75;;;;;;;21.29;72.97;99791.30;1733521;80;21054;-80
2022/08/10 10:46:19;;;;;;;1.95;1.32;;;;;;;21.32;72.92;99791.06;1766489;81;21164;-76
2022/08/10 10:49:27;;;;;;;1.75;1.50;;;;;;;21.29;72.01;99787.34;1767305;80;21058;-78
2022/08/10 10:52:17;;;;;;;1.52;1.42;;;;;;;21.22;73.30;99776.88;1771764;80;21038;-79
2022/08/10 10:55:14;;;;;;;2.33;1.90;;;;;;;21.19;73.10;99775.28;1771193;80;21056;-80
2022/08/10 10:57:58;;;;;;;2.52;1.82;;;;;;;21.19;73.48;99768.67;1770259;80;21147;-79
2022/08/10 11:00:31;;;;;;;4.17;1.65;;;;;;;21.21;75.11;99768.58;1749703;79;22064;-79
2022/08/10 11:03:24;;;;;;;5.63;1.80;;;;;;;21.27;74.60;99770.27;1743918;81;21545;-81
2022/08/10 11:06:06;;;;;;;;;;;;;;;21.34;74.89;99769.77;1737466;81;21452;-76
2022/08/10 11:08:38;;;;;;;3.62;1.65;;;;;;;21.34;72.66;99770.62;1723573;82;20144;-78
2022/08/10 11:11:11;;;;;;;12.00;2.45;;;;;;;21.31;73.48;99777.47;1709725;82;21626;-79
2022/08/10 11:13:55;;;;;;;3.17;1.60;;;;;;;21.35;75.21;99780.23;1715767;83;21380;-79
2022/08/10 11:16:50;;;;;;;6.42;1.90;;;;;;;21.39;74.48;99782.13;1722144;82;21954;-77
2022/08/10 11:19:49;;;;;;;;;;;;;;;21.40;74.78;99773.22;1721886;82;21617;-80
2022/08/10 11:22:46;;;;;;;3.08;1.92;;;;;;;21.46;74.85;99779.34;1722205;82;20171;-76
2022/08/10 11:25:34;;;;;;;3.02;2.42;;;;;;;21.46;74.71;99770.09;1722922;83;21090;-78
2022/08/10 11:28:10;;;;;;;3.75;2.33;;;;;;;21.49;74.19;99773.33;1713437;82;21339;-80
2022/08/10 11:30:48;;;;;;;2.87;2.30;;;;;;;21.55;72.90;99773.31;1705202;82;21400;-77
2022/08/10 11:34:02;;;;;;;3.87;2.20;;;;;;;21.56;74.23;99768.38;1705884;82;21492;-81
2022/08/10 11:37:10;;;;;;;2.30;1.98;;;;;;;21.59;74.15;99772.91;1706293;82;21081;-78
2022/08/10 11:39:58;;;;;;;2.52;2.12;;;;;;;21.59;74.15;99772.91;1705222;83;21036;-75
2022/08/10 11:42:50;;;;;;;3.72;2.20;;;;;;;21.57;73.96;99776.20;1705211;82;21110;-78
2022/08/10 11:45:30;;;;;;;2.20;2.00;;;;;;;21.52;73.51;99766.47;1713327;82;21040;-80
2022/08/10 11:48:02;;;;;;;2.08;1.98;;;;;;;21.45;74.08;99757.34;1660966;86;21085;-77
2022/08/10 11:50:48;;;;;;;2.30;2.10;;;;;;;21.45;75.58;99751.20;1713992;82;22202;-80
2022/08/10 11:53:30;;;;;;;3.65;2.40;;;;;;;21.41;74.31;99752.41;1714522;82;21901;-79
2022/08/10 11:55:59;;;;;;;2.67;2.20;;;;;;;21.33;75.51;99751.73;1659940;85;22203;-79
2022/08/10 12:01:19;;;;;;;2.87;2.20;;;;;;;21.17;76.09;99748.14;1675513;85;21045;-79
2022/08/10 12:03:46;;;;;;;3.30;2.92;;;;;;;21.11;77.15;99758.37;1726896;81;21039;-80
2022/08/10 12:06:16;;;;;;;2.60;2.40;;;;;;;21.07;77.74;99755.13;1742962;82;21044;-78
2022/08/10 12:08:44;;;;;;;4.92;2.50;;;;;;;21.06;78.76;99752.12;1740648;82;21244;-79
2022/08/10 12:11:15;;;;;;;3.72;2.25;;;;;;;21.05;79.35;99752.23;1741114;82;21066;-81
2022/08/10 12:13:57;;;;;;;3.83;2.42;;;;;;;21.02;79.17;99751.16;1740760;82;22189;-80
2022/08/10 12:16:26;;;;;;;2.47;2.12;;;;;;;20.95;78.95;99751.67;1740790;82;21597;-77
2022/08/10 12:19:01;;;;;;;2.20;2.00;;;;;;;20.85;79.88;99745.42;1740113;82;21079;-76
2022/08/10 12:21:44;;;;;;;4.33;2.58;;;;;;;20.79;79.33;99748.54;1684733;85;21450;-76
2022/08/10 12:24:19;;;;;;;3.92;2.40;;;;;;;20.76;80.00;99738.72;1685874;85;20986;-76
2022/08/10 12:26:57;;;;;;;2.45;2.12;;;;;;;20.74;79.61;99732.22;1685683;85;21517;-75
2022/08/10 12:29:39;;;;;;;2.87;1.98;;;;;;;20.72;79.39;99734.14;1685933;85;21501;-78
2022/08/10 12:32:26;;;;;;;5.65;2.65;;;;;;;20.71;79.42;99725.85;1685814;85;21112;-78
2022/08/10 12:35:04;;;;;;;5.05;2.62;;;;;;;20.70;80.35;99732.10;1693502;83;21745;-79